Time;durP1;ratioP1;P1;durP2;ratioP2;P2;SDS_P1;SDS_P2;PMS_P1;PMS_P2;Temp;Humidity;BMP_temperature;BMP_pressure;BME280_temperature;BME280_humidity;BME280_pressure;Samples;Min_cycle;Max_cycle;Signal;HPM_P1;HPM_P2
2022/04/04 00:00:36;;;;;;;7.13;4.13;;;3.70;99.90;;;;;;7389951;19;20130;-82
2022/04/04 00:03:02;;;;;;;5.23;3.70;;;3.70;99.90;;;;;;7391553;19;20523;-83
2022/04/04 00:05:28;;;;;;;8.30;5.13;;;3.70;99.90;;;;;;7402335;19;20164;-82
2022/04/04 00:07:54;;;;;;;6.40;4.17;;;3.70;99.90;;;;;;7396644;19;20130;-83
2022/04/04 00:10:20;;;;;;;5.73;4.47;;;3.70;99.90;;;;;;7391472;19;20138;-83
2022/04/04 00:12:46;;;;;;;6.60;3.93;;;3.60;99.90;;;;;;7391504;19;20126;-81
2022/04/04 00:15:13;;;;;;;5.90;4.03;;;3.60;99.90;;;;;;7390039;19;20142;-82
2022/04/04 00:17:38;;;;;;;5.37;3.93;;;3.60;99.90;;;;;;7389116;19;20146;-82
2022/04/04 00:20:07;;;;;;;8.67;4.50;;;3.70;99.90;;;;;;7392732;19;20135;-86
2022/04/04 00:22:33;;;;;;;7.43;4.57;;;3.50;99.90;;;;;;7395009;19;20147;-84
2022/04/04 00:24:59;;;;;;;6.97;5.00;;;3.50;99.90;;;;;;7390478;19;20147;-84
2022/04/04 00:27:24;;;;;;;7.00;4.37;;;3.50;99.90;;;;;;7398044;19;20195;-83
2022/04/04 00:29:50;;;;;;;5.67;4.23;;;3.50;99.90;;;;;;7391512;19;20150;-81
2022/04/04 00:32:17;;;;;;;5.57;4.20;;;3.70;99.90;;;;;;7393672;19;20126;-84
2022/04/04 00:34:42;;;;;;;6.67;4.40;;;3.60;99.90;;;;;;7390102;19;20210;-82
2022/04/04 00:37:08;;;;;;;8.07;4.77;;;3.70;99.90;;;;;;7389321;19;20126;-83
2022/04/04 00:39:34;;;;;;;7.43;4.13;;;3.60;99.90;;;;;;7388537;19;20123;-82
2022/04/04 00:42:00;;;;;;;9.60;4.37;;;3.60;99.90;;;;;;7388560;19;20239;-82
2022/04/04 00:44:25;;;;;;;5.80;4.00;;;3.60;99.90;;;;;;7390076;19;20622;-82
2022/04/04 00:46:51;;;;;;;4.70;3.93;;;3.60;99.90;;;;;;7387503;19;20175;-81
2022/04/04 00:49:17;;;;;;;5.00;3.30;;;3.50;99.90;;;;;;7395201;19;20645;-81
2022/04/04 00:51:43;;;;;;;9.90;4.50;;;3.40;99.90;;;;;;7392757;19;20155;-82
2022/04/04 00:54:10;;;;;;;6.63;4.40;;;3.40;99.90;;;;;;7394093;19;20134;-84
2022/04/04 00:56:36;;;;;;;5.77;4.17;;;3.40;99.90;;;;;;7394373;19;20190;-85
2022/04/04 00:59:05;;;;;;;7.40;4.23;;;3.40;99.90;;;;;;7390934;19;20147;-82
2022/04/04 01:01:32;;;;;;;6.27;4.30;;;3.50;99.90;;;;;;7392421;19;20158;-85
2022/04/04 01:03:57;;;;;;;5.87;4.43;;;3.50;99.90;;;;;;7389998;19;20162;-83
2022/04/04 01:06:23;;;;;;;5.10;3.63;;;3.40;99.90;;;;;;7390729;19;20210;-81
2022/04/04 01:08:49;;;;;;;7.57;4.17;;;3.40;99.90;;;;;;7402189;19;20139;-82
2022/04/04 01:11:16;;;;;;;7.73;4.13;;;3.30;99.90;;;;;;7393121;19;20158;-84
2022/04/04 01:13:47;;;;;;;7.07;4.13;;;3.30;99.90;;;;;;7389583;19;20460;-84
2022/04/04 01:16:13;;;;;;;6.40;4.03;;;3.30;99.90;;;;;;7391701;19;20615;-82
2022/04/04 01:18:39;;;;;;;6.27;4.10;;;3.30;99.90;;;;;;7392095;19;20127;-85
2022/04/04 01:21:07;;;;;;;8.97;4.40;;;3.50;99.90;;;;;;7390479;19;20157;-81
2022/04/04 01:23:41;;;;;;;5.80;4.00;;;3.30;99.90;;;;;;7389711;19;20566;-85
2022/04/04 01:26:11;;;;;;;6.80;4.23;;;3.30;99.90;;;;;;7394076;19;20201;-82
2022/04/04 01:28:38;;;;;;;5.90;3.90;;;3.30;99.90;;;;;;7399603;19;20198;-81
2022/04/04 01:31:05;;;;;;;6.23;3.80;;;3.30;99.90;;;;;;7395279;19;20139;-83
2022/04/04 01:33:31;;;;;;;5.87;4.30;;;3.20;99.90;;;;;;7388986;19;20127;-81
2022/04/04 01:35:57;;;;;;;4.97;3.77;;;3.10;99.90;;;;;;7392525;19;20183;-85
2022/04/04 01:38:24;;;;;;;5.67;4.17;;;3.20;99.90;;;;;;7391612;19;20159;-84
2022/04/04 01:40:51;;;;;;;6.73;3.90;;;3.20;99.90;;;;;;7389715;19;20135;-85
2022/04/04 01:43:17;;;;;;;9.67;5.03;;;3.20;99.90;;;;;;7390105;19;20123;-82
2022/04/04 01:48:27;;;;;;;5.73;4.30;;;3.30;99.90;;;;;;7393857;19;20138;-85
2022/04/04 01:50:53;;;;;;;4.80;3.70;;;3.30;99.90;;;;;;7391700;19;20672;-81
2022/04/04 01:53:25;;;;;;;6.10;3.93;;;3.40;99.90;;;;;;7389795;19;20146;-85
2022/04/04 01:55:52;;;;;;;6.00;4.10;;;3.20;99.90;;;;;;7389508;19;20145;-82
2022/04/04 01:58:19;;;;;;;5.23;3.43;;;3.20;99.90;;;;;;7391908;19;20137;-83
2022/04/04 02:00:44;;;;;;;5.43;4.00;;;3.10;99.90;;;;;;7395107;19;20161;-83
2022/04/04 02:03:11;;;;;;;5.77;3.77;;;3.10;99.90;;;;;;7388500;19;20197;-84
2022/04/04 02:05:37;;;;;;;4.87;3.63;;;3.00;99.90;;;;;;7388812;19;20160;-83
2022/04/04 02:08:03;;;;;;;6.30;3.70;;;3.10;99.90;;;;;;7388790;19;20126;-84
2022/04/04 02:10:29;;;;;;;5.70;4.10;;;3.20;99.90;;;;;;7395061;19;20145;-84
2022/04/04 02:12:55;;;;;;;5.40;3.47;;;3.10;99.90;;;;;;7392977;19;20127;-83
2022/04/04 02:15:22;;;;;;;7.37;4.17;;;3.10;99.90;;;;;;7389764;19;20127;-82
2022/04/04 02:17:47;;;;;;;5.93;4.30;;;3.10;99.90;;;;;;7388381;19;20481;-83
2022/04/04 02:20:14;;;;;;;7.37;3.87;;;2.90;99.90;;;;;;7388822;19;20541;-85
2022/04/04 02:22:40;;;;;;;5.67;4.27;;;3.10;99.90;;;;;;7390442;19;20578;-84
2022/04/04 02:25:06;;;;;;;6.10;3.70;;;3.10;99.90;;;;;;7392836;19;20123;-85
2022/04/04 02:27:32;;;;;;;5.20;4.10;;;2.80;99.90;;;;;;7394919;19;21124;-84
2022/04/04 02:29:57;;;;;;;5.90;3.70;;;2.90;99.90;;;;;;7397640;19;20137;-82
2022/04/04 02:32:23;;;;;;;7.93;4.03;;;2.90;99.90;;;;;;7404095;19;20134;-82
2022/04/04 02:34:50;;;;;;;5.23;3.80;;;2.90;99.90;;;;;;7397827;19;20190;-82
2022/04/04 02:37:16;;;;;;;6.53;4.17;;;2.90;99.90;;;;;;7394796;19;20181;-85
2022/04/04 02:39:42;;;;;;;6.63;4.30;;;3.00;99.90;;;;;;7395405;19;20476;-84
2022/04/04 02:42:08;;;;;;;6.10;3.90;;;2.90;99.90;;;;;;7394186;19;20126;-80
2022/04/04 02:44:35;;;;;;;5.87;4.13;;;2.60;99.90;;;;;;7393729;19;20168;-82
2022/04/04 02:47:01;;;;;;;5.73;3.57;;;2.60;99.90;;;;;;7395181;19;20206;-82
2022/04/04 02:49:30;;;;;;;6.10;4.43;;;2.50;99.90;;;;;;7396061;19;20123;-84
2022/04/04 02:51:57;;;;;;;6.23;4.23;;;2.70;99.90;;;;;;7398455;19;20146;-85
2022/04/04 02:54:24;;;;;;;8.57;3.67;;;2.70;99.90;;;;;;7401872;19;20804;-85
2022/04/04 02:56:50;;;;;;;6.73;4.00;;;2.40;99.90;;;;;;7394658;19;20158;-85
2022/04/04 02:59:16;;;;;;;5.00;3.33;;;2.30;99.90;;;;;;7395009;19;20777;-81
2022/04/04 03:01:48;;;;;;;4.10;3.30;;;2.20;99.90;;;;;;7394406;19;20141;-84
2022/04/04 03:04:18;;;;;;;5.53;3.80;;;2.40;99.90;;;;;;7392657;19;20141;-85
2022/04/04 03:06:44;;;;;;;5.43;3.50;;;2.60;99.90;;;;;;7396962;19;20142;-85
2022/04/04 03:09:11;;;;;;;6.60;3.30;;;2.90;99.90;;;;;;7399182;19;20194;-81
2022/04/04 03:11:40;;;;;;;4.50;3.40;;;2.90;99.90;;;;;;7395420;19;20147;-83
2022/04/04 03:14:06;;;;;;;4.37;3.23;;;2.80;99.90;;;;;;7398296;19;20150;-81
2022/04/04 03:16:31;;;;;;;4.40;3.33;;;2.70;99.90;;;;;;7398431;19;20554;-84
2022/04/04 03:18:59;;;;;;;6.77;3.60;;;2.80;99.90;;;;;;7395470;19;20126;-85
2022/04/04 03:21:27;;;;;;;5.37;3.50;;;2.80;99.90;;;;;;7394862;19;20206;-84
2022/04/04 03:23:56;;;;;;;5.03;3.23;;;2.70;99.90;;;;;;7393020;19;20143;-85
2022/04/04 03:26:23;;;;;;;5.67;3.20;;;2.80;99.90;;;;;;7397236;19;20150;-85
2022/04/04 03:28:49;;;;;;;4.27;3.60;;;2.70;99.90;;;;;;7395639;19;20546;-85
2022/04/04 03:31:15;;;;;;;4.13;3.20;;;2.60;99.90;;;;;;7393737;19;20485;-85
2022/04/04 03:33:41;;;;;;;4.83;3.77;;;2.80;99.90;;;;;;7408251;19;20171;-81
2022/04/04 03:36:07;;;;;;;6.50;3.27;;;3.00;99.90;;;;;;7398727;19;20222;-82
2022/04/04 03:38:33;;;;;;;5.10;2.87;;;3.00;99.90;;;;;;7393986;19;20242;-83
2022/04/04 03:40:59;;;;;;;6.27;3.57;;;3.00;99.90;;;;;;7393146;19;20218;-83
2022/04/04 03:43:25;;;;;;;6.13;3.40;;;2.90;99.90;;;;;;7393606;19;20139;-83
2022/04/04 03:45:52;;;;;;;5.43;3.30;;;2.90;99.90;;;;;;7392824;19;20131;-84
2022/04/04 03:48:19;;;;;;;6.00;3.03;;;2.80;99.90;;;;;;7393528;19;20143;-82
2022/04/04 03:50:47;;;;;;;7.03;3.40;;;2.70;99.90;;;;;;7392876;19;20146;-82
2022/04/04 03:53:13;;;;;;;5.80;3.20;;;2.60;99.90;;;;;;7400218;19;20152;-82
2022/04/04 03:55:40;;;;;;;4.57;3.33;;;2.70;99.90;;;;;;7397690;19;20142;-82
2022/04/04 03:58:10;;;;;;;4.13;3.10;;;2.60;99.90;;;;;;7393835;19;20206;-84
2022/04/04 04:00:38;;;;;;;5.10;3.27;;;2.60;99.90;;;;;;7397321;19;20138;-82
2022/04/04 04:03:05;;;;;;;5.23;3.30;;;2.70;99.90;;;;;;7392518;19;20150;-82
2022/04/04 04:05:31;;;;;;;5.50;3.23;;;2.60;99.90;;;;;;7394103;19;20145;-83
2022/04/04 04:07:57;;;;;;;4.43;2.80;;;2.70;99.90;;;;;;7392775;19;20135;-83
2022/04/04 04:10:23;;;;;;;4.87;3.30;;;2.30;99.90;;;;;;7393737;19;20161;-83
2022/04/04 04:12:49;;;;;;;5.67;3.97;;;2.20;99.90;;;;;;7393284;19;20764;-82
2022/04/04 04:15:21;;;;;;;5.23;3.27;;;2.50;99.90;;;;;;7392705;19;20489;-81
2022/04/04 04:17:51;;;;;;;4.90;3.10;;;2.60;99.90;;;;;;7400850;19;20119;-81
2022/04/04 04:20:31;;;;;;;5.87;3.47;;;2.50;99.90;;;;;;7397271;19;20473;-83
2022/04/04 04:23:01;;;;;;;4.77;3.37;;;2.50;99.90;;;;;;7391729;19;20505;-81
2022/04/04 04:25:28;;;;;;;5.03;3.20;;;2.50;99.90;;;;;;7389787;19;20149;-83
2022/04/04 04:27:56;;;;;;;4.43;3.27;;;2.50;99.90;;;;;;7390236;19;20264;-81
2022/04/04 04:30:22;;;;;;;5.50;3.33;;;2.60;99.90;;;;;;7394686;19;20131;-84
2022/04/04 04:32:50;;;;;;;6.27;3.47;;;2.50;99.90;;;;;;7393892;19;20137;-81
2022/04/04 04:35:17;;;;;;;4.57;3.50;;;2.50;99.90;;;;;;7394285;19;20572;-81
2022/04/04 04:37:44;;;;;;;5.93;3.93;;;2.40;99.90;;;;;;7390677;19;20360;-81
2022/04/04 04:40:12;;;;;;;5.33;3.17;;;2.30;99.90;;;;;;7412931;19;20135;-83
2022/04/04 04:42:38;;;;;;;7.63;3.00;;;2.20;99.90;;;;;;7392795;19;20150;-81
2022/04/04 04:45:08;;;;;;;3.93;3.10;;;2.20;99.90;;;;;;7389309;19;20239;-83
2022/04/04 04:47:34;;;;;;;4.60;3.10;;;2.20;99.90;;;;;;7389238;19;20147;-85
2022/04/04 04:50:01;;;;;;;4.60;2.97;;;2.10;99.90;;;;;;7391689;19;20142;-83
2022/04/04 04:52:30;;;;;;;6.90;3.10;;;2.00;99.90;;;;;;7392227;19;20135;-84
2022/04/04 04:54:55;;;;;;;6.17;3.40;;;2.10;99.90;;;;;;7389727;19;20145;-83
2022/04/04 04:57:22;;;;;;;4.90;3.37;;;2.10;99.90;;;;;;7392352;19;20138;-85
2022/04/04 04:59:48;;;;;;;4.20;3.30;;;2.10;99.90;;;;;;7394106;19;20696;-85
2022/04/04 05:02:14;;;;;;;4.13;3.03;;;1.90;99.90;;;;;;7394806;19;20154;-80
2022/04/04 05:04:40;;;;;;;4.77;3.10;;;2.00;99.90;;;;;;7395632;19;20146;-85
2022/04/04 05:07:07;;;;;;;5.57;3.23;;;2.10;99.90;;;;;;7392388;19;20137;-82
2022/04/04 05:09:35;;;;;;;4.20;3.13;;;2.10;99.90;;;;;;7390754;19;20137;-85
2022/04/04 05:12:01;;;;;;;6.73;3.30;;;2.00;99.90;;;;;;7391861;19;20153;-86
2022/04/04 05:14:27;;;;;;;4.43;3.27;;;2.00;99.90;;;;;;7389526;19;20154;-84
2022/04/04 05:16:53;;;;;;;6.67;3.27;;;2.10;99.90;;;;;;7391808;19;20191;-85
2022/04/04 05:19:22;;;;;;;8.03;3.80;;;2.10;99.90;;;;;;7389915;19;20131;-82
2022/04/04 05:21:49;;;;;;;5.60;3.40;;;1.90;99.90;;;;;;7392620;19;20141;-85
2022/04/04 05:24:15;;;;;;;4.07;3.03;;;2.10;99.90;;;;;;7389956;19;20642;-82
2022/04/04 05:26:41;;;;;;;9.97;3.97;;;2.10;99.90;;;;;;7394694;19;20135;-86
2022/04/04 05:29:08;;;;;;;10.07;3.63;;;2.10;99.90;;;;;;7393677;19;20142;-87
2022/04/04 05:31:34;;;;;;;6.07;3.47;;;2.10;99.90;;;;;;7393480;19;20183;-81
2022/04/04 05:34:07;;;;;;;4.93;2.97;;;2.20;99.90;;;;;;7389137;19;20617;-76
2022/04/04 05:36:33;;;;;;;5.40;3.70;;;2.30;99.90;;;;;;7385531;19;20219;-80
2022/04/04 05:38:59;;;;;;;8.03;3.60;;;2.30;99.90;;;;;;7391231;19;20171;-79
2022/04/04 05:41:27;;;;;;;7.67;4.23;;;2.30;99.90;;;;;;7391803;19;20223;-78
2022/04/04 05:43:53;;;;;;;6.00;3.90;;;2.20;99.90;;;;;;7393582;19;20149;-80
2022/04/04 05:46:19;;;;;;;7.23;3.83;;;2.40;99.90;;;;;;7389960;19;20151;-80
2022/04/04 05:48:46;;;;;;;7.07;4.33;;;2.60;99.90;;;;;;7396948;19;20130;-82
2022/04/04 05:51:13;;;;;;;12.33;4.83;;;2.70;99.90;;;;;;7409210;19;20201;-77
2022/04/04 05:53:40;;;;;;;13.80;4.83;;;2.60;99.90;;;;;;7392211;19;20493;-79
2022/04/04 05:56:06;;;;;;;12.17;4.43;;;2.70;99.90;;;;;;7389506;19;20673;-81
2022/04/04 05:58:32;;;;;;;7.00;4.70;;;2.70;99.90;;;;;;7392207;19;20138;-79
2022/04/04 06:00:58;;;;;;;7.20;4.03;;;2.70;99.90;;;;;;7398819;19;20126;-81
2022/04/04 06:03:24;;;;;;;9.70;4.57;;;2.70;99.90;;;;;;7397394;19;20211;-80
2022/04/04 06:05:51;;;;;;;5.67;3.90;;;2.80;99.90;;;;;;7398771;19;20139;-79
2022/04/04 06:08:17;;;;;;;18.17;4.67;;;2.60;99.90;;;;;;7398262;19;20153;-80
2022/04/04 06:10:46;;;;;;;7.27;3.97;;;2.60;99.90;;;;;;7407570;19;20182;-80
2022/04/04 06:13:16;;;;;;;7.33;4.40;;;2.60;99.90;;;;;;7398111;19;20127;-81
2022/04/04 06:15:45;;;;;;;5.07;3.43;;;2.50;99.90;;;;;;7395810;19;20154;-81
2022/04/04 06:18:12;;;;;;;4.37;3.03;;;2.50;99.90;;;;;;7394625;19;20143;-80
2022/04/04 06:20:39;;;;;;;6.90;3.50;;;2.60;99.90;;;;;;7397211;19;20146;-80
2022/04/04 06:23:05;;;;;;;6.63;4.57;;;2.70;99.90;;;;;;7394607;19;20130;-80
2022/04/04 06:25:31;;;;;;;6.60;3.80;;;2.90;99.90;;;;;;7394949;19;20198;-80
2022/04/04 06:27:58;;;;;;;7.83;3.63;;;2.90;99.90;;;;;;7394864;19;20174;-80
2022/04/04 06:30:25;;;;;;;14.40;4.90;;;2.90;99.90;;;;;;7394946;19;20168;-78
2022/04/04 06:32:51;;;;;;;6.90;3.70;;;2.90;99.90;;;;;;7403301;19;20164;-78
2022/04/04 06:35:18;;;;;;;5.53;3.47;;;3.00;99.90;;;;;;7399176;19;20151;-79
2022/04/04 06:37:45;;;;;;;6.63;3.70;;;3.10;99.90;;;;;;7392737;19;20496;-82
2022/04/04 06:40:12;;;;;;;5.30;3.27;;;3.00;99.90;;;;;;7397204;19;20551;-82
2022/04/04 06:42:41;;;;;;;6.87;3.67;;;3.10;99.90;;;;;;7395596;19;20123;-81
2022/04/04 06:45:09;;;;;;;7.43;3.97;;;3.10;99.90;;;;;;7395510;19;20171;-80
2022/04/04 06:47:36;;;;;;;8.87;3.73;;;3.30;99.90;;;;;;7395437;19;20993;-80
2022/04/04 06:50:04;;;;;;;9.07;3.90;;;3.30;99.90;;;;;;7394294;19;20141;-82
2022/04/04 06:52:32;;;;;;;5.27;3.70;;;3.30;99.90;;;;;;7395992;19;20130;-80
2022/04/04 06:54:58;;;;;;;6.87;3.77;;;3.10;99.90;;;;;;7400836;19;20138;-79
2022/04/04 06:57:24;;;;;;;5.00;3.90;;;3.40;99.90;;;;;;7400103;19;20130;-80
2022/04/04 06:59:50;;;;;;;6.40;3.57;;;3.20;99.90;;;;;;7402574;19;20570;-80
2022/04/04 07:02:18;;;;;;;6.90;3.47;;;3.40;99.90;;;;;;7397102;19;20158;-81
2022/04/04 07:04:44;;;;;;;4.80;3.93;;;3.40;99.90;;;;;;7392945;19;20142;-80
2022/04/04 07:07:10;;;;;;;4.60;3.40;;;3.20;99.90;;;;;;7394547;19;20142;-80
2022/04/04 07:09:36;;;;;;;10.93;3.80;;;3.20;99.90;;;;;;7393778;19;20147;-81
2022/04/04 07:12:05;;;;;;;11.20;3.47;;;3.30;99.90;;;;;;7393539;19;20191;-80
2022/04/04 07:14:31;;;;;;;9.17;3.63;;;3.60;99.90;;;;;;7395539;19;20724;-81
2022/04/04 07:16:57;;;;;;;7.00;3.70;;;3.70;99.90;;;;;;7398467;19;20214;-80
2022/04/04 07:19:23;;;;;;;5.77;3.53;;;3.90;99.90;;;;;;7409125;19;20142;-80
2022/04/04 07:21:50;;;;;;;5.60;3.80;;;3.80;99.90;;;;;;7399615;19;20160;-80
2022/04/04 07:24:17;;;;;;;4.23;3.20;;;3.90;99.90;;;;;;7394063;19;20143;-80
2022/04/04 07:26:43;;;;;;;8.37;3.40;;;4.00;99.90;;;;;;7392552;19;20158;-82
2022/04/04 07:29:09;;;;;;;14.23;6.27;;;4.30;99.90;;;;;;7393550;19;20178;-80
2022/04/04 07:31:36;;;;;;;6.70;3.73;;;4.20;99.90;;;;;;7392428;19;20206;-80
2022/04/04 07:34:03;;;;;;;6.80;3.40;;;4.40;99.90;;;;;;7391845;19;20460;-79
2022/04/04 07:36:32;;;;;;;8.77;5.10;;;4.50;99.90;;;;;;7396467;19;20158;-80
2022/04/04 07:38:58;;;;;;;7.47;4.30;;;4.60;99.90;;;;;;7393914;19;20178;-79
2022/04/04 07:41:24;;;;;;;7.70;4.27;;;4.70;99.90;;;;;;7400318;19;20126;-81
2022/04/04 07:43:50;;;;;;;5.30;3.57;;;4.90;99.90;;;;;;7391818;19;20146;-80
2022/04/04 07:46:17;;;;;;;6.17;3.07;;;4.90;99.90;;;;;;7390969;19;20554;-79
2022/04/04 07:48:42;;;;;;;12.07;3.60;;;5.00;99.90;;;;;;7393624;19;20127;-81
2022/04/04 07:51:08;;;;;;;6.23;3.20;;;4.80;99.90;;;;;;7391454;19;20162;-81
2022/04/04 07:53:35;;;;;;;7.13;3.13;;;5.20;99.90;;;;;;7391302;19;20155;-80
2022/04/04 07:56:01;;;;;;;5.37;3.40;;;5.50;99.90;;;;;;7390500;19;20135;-81
2022/04/04 07:58:27;;;;;;;7.33;3.53;;;5.90;99.90;;;;;;7391010;19;20134;-80
2022/04/04 08:00:54;;;;;;;3.97;3.10;;;6.10;99.90;;;;;;7392972;19;20160;-80
2022/04/04 08:03:23;;;;;;;6.70;2.90;;;6.40;99.90;;;;;;7410112;19;20139;-79
2022/04/04 08:05:54;;;;;;;7.97;3.10;;;7.00;99.90;;;;;;7395635;19;20139;-80
2022/04/04 08:08:19;;;;;;;5.63;3.10;;;7.60;99.90;;;;;;7390721;19;20602;-81
2022/04/04 08:10:45;;;;;;;9.53;5.70;;;8.10;99.40;;;;;;7390991;19;20146;-78
2022/04/04 08:13:11;;;;;;;5.20;3.43;;;8.30;98.30;;;;;;7390403;19;20180;-81
2022/04/04 08:15:37;;;;;;;4.57;3.20;;;8.70;98.00;;;;;;7389566;19;20153;-81
2022/04/04 08:18:03;;;;;;;5.00;3.03;;;8.70;97.20;;;;;;7390326;19;20614;-80
2022/04/04 08:20:29;;;;;;;5.47;2.87;;;8.60;96.60;;;;;;7391041;19;20141;-78
2022/04/04 08:22:56;;;;;;;5.00;3.30;;;8.60;96.30;;;;;;7401803;19;20133;-79
2022/04/04 08:25:22;;;;;;;4.77;3.43;;;8.70;96.20;;;;;;7390511;19;20610;-80
2022/04/04 08:27:49;;;;;;;5.90;3.57;;;8.80;96.40;;;;;;7390062;19;20150;-81
2022/04/04 08:30:18;;;;;;;6.63;3.47;;;8.70;94.80;;;;;;7389102;19;20135;-78
2022/04/04 08:32:45;;;;;;;5.73;4.00;;;9.00;94.20;;;;;;7390109;19;20139;-80
2022/04/04 08:35:13;;;;;;;8.07;4.50;;;8.90;95.50;;;;;;7392743;19;20158;-81
2022/04/04 08:37:43;;;;;;;4.03;3.63;;;9.00;94.70;;;;;;7388275;19;20677;-78
2022/04/04 08:40:12;;;;;;;8.47;4.87;;;8.90;94.50;;;;;;7390699;19;20564;-78
2022/04/04 08:42:39;;;;;;;7.97;4.97;;;8.80;94.30;;;;;;7392158;19;20130;-83
2022/04/04 08:45:06;;;;;;;10.03;5.30;;;8.90;94.40;;;;;;7393974;19;20135;-81
2022/04/04 08:47:33;;;;;;;8.00;4.20;;;8.90;94.30;;;;;;7401830;19;20146;-82
2022/04/04 08:50:05;;;;;;;6.87;3.77;;;8.90;93.50;;;;;;7392413;19;20135;-79
2022/04/04 08:52:31;;;;;;;7.60;4.37;;;8.80;93.40;;;;;;7389310;19;20151;-81
2022/04/04 08:54:57;;;;;;;5.63;4.10;;;8.80;93.90;;;;;;7390898;19;20150;-80
2022/04/04 08:57:23;;;;;;;5.40;3.73;;;8.90;94.30;;;;;;7390053;19;20139;-80
2022/04/04 08:59:49;;;;;;;7.70;4.97;;;8.90;93.40;;;;;;7395023;19;20139;-81
2022/04/04 09:02:15;;;;;;;6.90;3.80;;;8.90;93.20;;;;;;7390653;19;20566;-81
2022/04/04 09:04:41;;;;;;;6.60;4.30;;;8.80;92.60;;;;;;7388422;19;20621;-79
2022/04/04 09:07:13;;;;;;;9.20;4.23;;;8.70;93.70;;;;;;7396067;19;20142;-79
2022/04/04 09:09:52;;;;;;;12.43;4.43;;;8.70;93.60;;;;;;7399308;19;20155;-82
2022/04/04 09:12:22;;;;;;;7.07;3.67;;;8.50;91.90;;;;;;7388293;19;20137;-79
2022/04/04 09:14:54;;;;;;;6.07;3.43;;;8.60;92.00;;;;;;7388543;19;20142;-80
2022/04/04 09:17:28;;;;;;;8.33;3.70;;;8.70;91.40;;;;;;7389183;19;20150;-79
2022/04/04 09:19:55;;;;;;;4.97;3.67;;;8.80;91.30;;;;;;7389363;19;20153;-82
2022/04/04 09:22:25;;;;;;;5.63;3.10;;;8.70;90.60;;;;;;7390314;19;20138;-82
2022/04/04 09:24:58;;;;;;;3.33;2.93;;;8.70;91.10;;;;;;7387788;19;20202;-81
2022/04/04 09:27:32;;;;;;;4.67;3.00;;;8.50;90.10;;;;;;7389589;19;20134;-83
2022/04/04 09:30:03;;;;;;;13.37;4.50;;;8.80;90.00;;;;;;7395730;19;20149;-82
2022/04/04 09:32:49;;;;;;;5.40;3.50;;;8.60;90.80;;;;;;7393229;19;20154;-80
2022/04/04 09:35:18;;;;;;;5.87;3.50;;;8.80;91.20;;;;;;7390346;19;20150;-80
2022/04/04 09:37:46;;;;;;;8.93;3.53;;;9.00;91.00;;;;;;7388762;19;20511;-79
2022/04/04 09:40:17;;;;;;;9.93;3.30;;;9.10;91.00;;;;;;7389068;19;20135;-79
2022/04/04 09:42:58;;;;;;;3.37;2.83;;;9.10;88.60;;;;;;7389707;19;20130;-81
2022/04/04 09:45:28;;;;;;;4.97;3.83;;;9.00;87.60;;;;;;7388963;19;20154;-79
2022/04/04 09:48:00;;;;;;;5.30;2.83;;;9.20;90.30;;;;;;7389520;19;20152;-79
2022/04/04 09:50:41;;;;;;;7.37;3.27;;;9.40;89.80;;;;;;7401247;19;20134;-80
2022/04/04 09:53:14;;;;;;;3.93;3.20;;;9.40;89.60;;;;;;7391555;19;20135;-85
2022/04/04 09:55:52;;;;;;;4.93;3.53;;;9.50;89.00;;;;;;7388113;19;20146;-83
2022/04/04 09:58:30;;;;;;;3.87;3.07;;;9.20;87.70;;;;;;7388852;19;20903;-79
2022/04/04 10:01:05;;;;;;;7.00;4.00;;;9.30;90.20;;;;;;7391569;19;20130;-81
2022/04/04 10:03:31;;;;;;;7.40;3.53;;;9.40;90.10;;;;;;7388142;19;20600;-80
2022/04/04 10:06:12;;;;;;;6.33;3.83;;;9.40;90.30;;;;;;7388457;19;20127;-77
2022/04/04 10:08:38;;;;;;;6.77;3.97;;;9.40;90.60;;;;;;7388346;19;20231;-81
2022/04/04 10:11:23;;;;;;;6.83;4.70;;;9.40;90.30;;;;;;7399751;19;20136;-83
2022/04/04 10:13:54;;;;;;;4.07;3.00;;;9.30;90.40;;;;;;7392153;19;20134;-79
2022/04/04 10:16:24;;;;;;;4.30;3.50;;;9.40;90.60;;;;;;7388907;19;20804;-79
2022/04/04 10:18:53;;;;;;;4.47;3.13;;;9.50;90.70;;;;;;7386647;19;20431;-80
2022/04/04 10:21:20;;;;;;;5.07;3.43;;;9.40;90.90;;;;;;7385675;19;20130;-81
2022/04/04 10:23:49;;;;;;;8.83;3.13;;;9.50;91.20;;;;;;7385381;19;20130;-81
2022/04/04 10:26:19;;;;;;;3.20;2.90;;;9.40;91.30;;;;;;7385441;19;20134;-83
2022/04/04 10:28:47;;;;;;;3.93;2.97;;;9.50;91.40;;;;;;7389067;19;20189;-80
2022/04/04 10:31:16;;;;;;;3.83;3.30;;;9.40;91.00;;;;;;7405343;19;20127;-78
2022/04/04 10:33:42;;;;;;;5.53;3.37;;;9.40;91.50;;;;;;7389909;19;20613;-79
2022/04/04 10:36:16;;;;;;;4.50;3.20;;;9.30;92.00;;;;;;7390744;19;20567;-79
2022/04/04 10:38:51;;;;;;;7.07;3.40;;;9.30;92.20;;;;;;7384467;19;20628;-79
2022/04/04 10:41:23;;;;;;;5.83;3.23;;;9.30;92.10;;;;;;7386378;19;20787;-82
2022/04/04 10:43:51;;;;;;;7.00;3.50;;;9.40;92.20;;;;;;7385817;19;20155;-78
2022/04/04 10:46:19;;;;;;;4.97;3.20;;;9.50;92.20;;;;;;7392101;19;20130;-79
2022/04/04 10:48:50;;;;;;;7.33;3.83;;;9.50;92.50;;;;;;7393239;19;20150;-81
2022/04/04 10:51:19;;;;;;;4.53;3.10;;;9.70;92.30;;;;;;7394581;19;20165;-80
2022/04/04 10:53:49;;;;;;;3.63;3.03;;;9.70;91.70;;;;;;7397210;19;20139;-78
2022/04/04 10:56:33;;;;;;;5.17;3.07;;;9.90;91.40;;;;;;7393576;19;20137;-78
2022/04/04 10:59:28;;;;;;;3.83;3.00;;;10.10;91.10;;;;;;7393205;19;20146;-82
2022/04/04 11:01:58;;;;;;;3.67;2.87;;;10.20;90.90;;;;;;7393441;19;20668;-80
2022/04/04 11:04:29;;;;;;;4.77;2.90;;;10.10;90.20;;;;;;7391298;19;20145;-81
2022/04/04 11:07:38;;;;;;;2.90;2.27;;;10.10;90.30;;;;;;7391538;19;20130;-79
2022/04/04 11:10:09;;;;;;;3.50;2.80;;;10.20;89.40;;;;;;7404754;19;20134;-80
2022/04/04 11:13:07;;;;;;;3.10;2.60;;;10.10;88.70;;;;;;7399693;19;20175;-82
2022/04/04 11:15:56;;;;;;;3.60;2.60;;;10.00;89.50;;;;;;7392013;19;20150;-79
2022/04/04 11:18:32;;;;;;;3.60;2.73;;;10.10;88.80;;;;;;7392200;19;20202;-81
2022/04/04 11:20:59;;;;;;;3.57;2.80;;;10.10;90.10;;;;;;7393160;19;20255;-82
2022/04/04 11:23:34;;;;;;;3.33;2.47;;;10.00;89.20;;;;;;7391765;19;20149;-78
2022/04/04 11:26:04;;;;;;;3.47;2.60;;;10.10;88.90;;;;;;7391462;19;20141;-79
2022/04/04 11:28:32;;;;;;;4.00;2.70;;;10.10;89.40;;;;;;7392398;19;20505;-78
2022/04/04 11:31:10;;;;;;;3.33;2.60;;;10.10;89.20;;;;;;7392740;19;20150;-81
2022/04/04 11:33:54;;;;;;;4.33;2.47;;;9.90;89.60;;;;;;7399721;19;20151;-78
2022/04/04 11:36:25;;;;;;;3.43;2.80;;;10.00;89.80;;;;;;7396262;19;20146;-81
2022/04/04 11:38:51;;;;;;;2.87;2.57;;;10.20;89.60;;;;;;7389988;19;20176;-82
2022/04/04 11:41:20;;;;;;;3.20;2.30;;;9.90;89.70;;;;;;7396518;19;20166;-82
2022/04/04 11:43:51;;;;;;;3.10;2.57;;;9.90;90.40;;;;;;7392602;19;20202;-83
2022/04/04 11:46:19;;;;;;;3.73;3.00;;;10.00;90.60;;;;;;7390051;19;20504;-79
2022/04/04 11:48:59;;;;;;;3.00;2.40;;;10.00;90.40;;;;;;7394935;19;20493;-82
2022/04/04 11:51:25;;;;;;;3.53;2.70;;;10.00;89.90;;;;;;7404200;19;20130;-83
2022/04/04 11:54:04;;;;;;;2.80;2.53;;;10.10;90.00;;;;;;7396729;19;20129;-83
2022/04/04 11:56:31;;;;;;;7.57;5.30;;;10.10;90.50;;;;;;7390528;19;20126;-80
2022/04/04 11:58:57;;;;;;;3.30;2.90;;;10.00;90.60;;;;;;7395751;19;20155;-80
2022/04/04 12:01:34;;;;;;;4.87;2.57;;;10.30;90.50;;;;;;7393672;19;20150;-82
2022/04/04 12:04:01;;;;;;;4.70;2.70;;;10.30;89.80;;;;;;7398463;19;20162;-81
2022/04/04 12:06:30;;;;;;;7.27;3.47;;;10.30;90.30;;;;;;7400171;19;20135;-80
2022/04/04 12:09:03;;;;;;;2.87;2.57;;;10.30;90.00;;;;;;7397240;19;20209;-83
2022/04/04 12:11:29;;;;;;;3.23;2.53;;;10.30;89.70;;;;;;7397493;19;20146;-78
2022/04/04 12:13:59;;;;;;;2.93;2.47;;;10.40;90.00;;;;;;7402156;19;20130;-81
2022/04/04 12:16:26;;;;;;;3.43;2.30;;;10.70;88.80;;;;;;7392535;19;20483;-78
2022/04/04 12:18:54;;;;;;;3.77;3.13;;;10.50;89.10;;;;;;7390097;19;20126;-80
2022/04/04 12:21:20;;;;;;;4.77;2.43;;;10.40;88.00;;;;;;7395650;19;20151;-81
2022/04/04 12:26:31;;;;;;;3.93;2.50;;;10.50;89.60;;;;;;7390767;19;20157;-79
2022/04/04 12:28:57;;;;;;;2.53;2.30;;;10.40;89.40;;;;;;7389215;19;20205;-81
2022/04/04 12:31:28;;;;;;;2.60;2.23;;;10.50;90.00;;;;;;7390946;19;20127;-78
2022/04/04 12:33:59;;;;;;;4.43;2.57;;;10.60;89.40;;;;;;7398113;19;20653;-79
2022/04/04 12:36:40;;;;;;;4.10;2.40;;;10.60;89.60;;;;;;7405105;19;20476;-80
2022/04/04 12:39:19;;;;;;;3.43;2.63;;;10.60;89.80;;;;;;7390855;19;20147;-82
2022/04/04 12:41:46;;;;;;;5.20;2.53;;;10.30;88.30;;;;;;7391090;19;20497;-79
2022/04/04 12:44:17;;;;;;;2.93;2.50;;;10.20;89.80;;;;;;7389887;19;20143;-78
2022/04/04 12:46:45;;;;;;;3.80;2.80;;;10.00;90.00;;;;;;7390945;19;20139;-81
2022/04/04 12:49:18;;;;;;;3.50;2.50;;;10.20;90.30;;;;;;7390285;19;20160;-82
2022/04/04 12:51:58;;;;;;;4.13;2.50;;;10.40;90.10;;;;;;7389968;19;20162;-79
2022/04/04 12:54:45;;;;;;;3.47;2.53;;;10.50;90.00;;;;;;7392453;19;20154;-82
2022/04/04 12:57:12;;;;;;;2.93;2.60;;;10.60;90.10;;;;;;7387784;19;20122;-79
2022/04/04 12:59:53;;;;;;;3.53;2.77;;;10.60;90.10;;;;;;7397981;19;20149;-78
2022/04/04 13:02:19;;;;;;;4.73;2.77;;;10.30;90.10;;;;;;7387831;19;20138;-82
2022/04/04 13:04:45;;;;;;;3.93;2.83;;;10.20;89.50;;;;;;7387786;19;20130;-78
2022/04/04 13:07:24;;;;;;;3.93;3.33;;;10.30;89.50;;;;;;7390783;19;20657;-80